createdAt,value
2023-07-17T00:00:16.162Z,71.697116
2023-07-17T00:05:16.290Z,71.597501
2023-07-17T00:10:16.428Z,71.497886
2023-07-17T00:15:16.386Z,71.398271
2023-07-17T00:20:16.389Z,70.793823
2023-07-17T00:25:16.448Z,70.800579
2023-07-17T00:30:16.282Z,70.700963
2023-07-17T00:35:16.453Z,70.700963
2023-07-17T00:40:16.318Z,70.800579
2023-07-17T00:45:16.277Z,70.900195
2023-07-17T00:50:16.293Z,70.900195
2023-07-17T00:55:16.299Z,71.099426
2023-07-17T01:00:16.334Z,71.298656
2023-07-17T01:05:16.451Z,71.398271
2023-07-17T01:10:16.406Z,71.298656
2023-07-17T01:15:16.419Z,71.298656
2023-07-17T01:20:16.368Z,71.398271
2023-07-17T01:25:16.447Z,71.398271
2023-07-17T01:30:16.387Z,71.298656
2023-07-17T01:35:16.404Z,71.199041
2023-07-17T01:40:16.447Z,71.298656
2023-07-17T01:45:16.387Z,71.199041
2023-07-17T01:50:16.546Z,71.199041
2023-07-17T01:55:16.480Z,70.999810
2023-07-17T02:00:16.471Z,70.800579
2023-07-17T02:05:16.622Z,70.800579
2023-07-17T02:10:16.693Z,70.900195
2023-07-17T02:15:16.495Z,70.700963
2023-07-17T02:20:16.485Z,70.800579
2023-07-17T02:25:16.567Z,70.601348
2023-07-17T02:30:16.854Z,70.402116
2023-07-17T02:35:16.600Z,69.904035
2023-07-17T02:40:16.724Z,69.505569
2023-07-17T02:45:16.671Z,69.505569
2023-07-17T02:50:16.589Z,69.405952
2023-07-17T02:55:16.611Z,69.405952
2023-07-17T03:00:16.580Z,69.206718
2023-07-17T03:05:16.595Z,69.206718
2023-07-17T03:10:16.645Z,68.907867
2023-07-17T03:15:16.700Z,68.708632
2023-07-17T03:20:16.684Z,68.609015
2023-07-17T03:25:16.808Z,68.609015
2023-07-17T03:30:16.759Z,69.207892
2023-07-17T03:35:16.682Z,69.407384
2023-07-17T03:40:16.690Z,69.306335
2023-07-17T03:45:16.725Z,69.206718
2023-07-17T03:50:16.673Z,69.206718
2023-07-17T03:55:16.929Z,69.107101
2023-07-17T04:00:15.698Z,69.007484
2023-07-17T04:05:15.677Z,69.007484
2023-07-17T04:10:15.705Z,68.907867
2023-07-17T04:15:15.959Z,68.609015
2023-07-17T04:20:15.711Z,68.609015
2023-07-17T04:25:15.740Z,68.609015
2023-07-17T04:30:15.795Z,68.609015
2023-07-17T04:35:15.837Z,68.609015
2023-07-17T04:40:15.871Z,68.509398
2023-07-17T04:45:15.855Z,68.808908
2023-07-17T04:50:15.784Z,68.808250
2023-07-17T04:55:15.803Z,68.609015
2023-07-17T05:00:15.805Z,69.207892
2023-07-17T05:05:15.937Z,69.407384
2023-07-17T05:10:15.838Z,69.007484
2023-07-17T05:15:15.887Z,69.207892
2023-07-17T05:20:15.850Z,69.606875
2023-07-17T05:25:16.066Z,69.806366
2023-07-17T05:30:15.890Z,69.405952
2023-07-17T05:35:17.434Z,69.405952
2023-07-17T05:40:15.969Z,69.806366
2023-07-17T05:45:15.904Z,70.205348
2023-07-17T05:50:16.090Z,70.305093
2023-07-17T05:55:16.022Z,70.305093
2023-07-17T06:00:16.150Z,70.003651
2023-07-17T06:05:15.966Z,69.904035
2023-07-17T06:10:16.016Z,70.105603
2023-07-17T06:15:16.072Z,70.404838
2023-07-17T06:20:16.004Z,70.604329
2023-07-17T06:25:16.086Z,70.504584
2023-07-17T06:30:16.092Z,70.003651
2023-07-17T06:35:16.076Z,70.305093
2023-07-17T06:40:16.163Z,70.205348
2023-07-17T06:45:16.081Z,70.205348
2023-07-17T06:50:16.139Z,70.404838
2023-07-17T06:55:16.260Z,70.604329
2023-07-17T07:00:16.355Z,70.604329
2023-07-17T07:05:16.376Z,70.604329
2023-07-17T07:10:16.355Z,70.604329
2023-07-17T07:15:16.213Z,70.704074
2023-07-17T07:20:16.259Z,70.103267
2023-07-17T07:25:16.398Z,69.704802
2023-07-17T07:30:16.292Z,69.806366
2023-07-17T07:35:16.334Z,69.806366
2023-07-17T07:40:16.262Z,69.806366
2023-07-17T07:45:16.625Z,69.906112
2023-07-17T07:50:16.379Z,70.005857
2023-07-17T07:55:16.296Z,70.105603
2023-07-17T08:00:16.295Z,70.105603
2023-07-17T08:05:16.224Z,70.105603
2023-07-17T08:10:16.395Z,70.105603
2023-07-17T08:15:16.328Z,70.105603
2023-07-17T08:20:16.287Z,70.005857
2023-07-17T08:25:16.476Z,69.906112
2023-07-17T08:30:16.468Z,70.105603
2023-07-17T08:35:16.368Z,70.305093
2023-07-17T08:40:16.524Z,70.404838
2023-07-17T08:45:16.453Z,70.604329
2023-07-17T08:50:16.538Z,70.704074
2023-07-17T08:55:16.416Z,70.704074
2023-07-17T09:00:16.486Z,70.704074
2023-07-17T09:05:16.513Z,70.704074
2023-07-17T09:10:16.472Z,70.704074
2023-07-17T09:15:16.464Z,70.704074
2023-07-17T09:20:16.660Z,70.803819
2023-07-17T09:25:16.617Z,70.903564
2023-07-17T09:30:16.510Z,70.903564
2023-07-17T09:35:16.508Z,71.003309
2023-07-17T09:40:16.622Z,71.003309
2023-07-17T09:45:16.552Z,70.903564
2023-07-17T09:50:16.661Z,70.903564
2023-07-17T09:55:16.774Z,71.103053
2023-07-17T10:00:16.632Z,71.202798
2023-07-17T10:05:16.451Z,71.202798
2023-07-17T10:10:16.686Z,71.103053
2023-07-17T10:15:16.633Z,70.903564
2023-07-17T10:20:16.680Z,70.803819
2023-07-17T10:25:17.072Z,70.803819
2023-07-17T10:30:16.649Z,70.903564
2023-07-17T10:35:16.693Z,71.003309
2023-07-17T10:40:16.706Z,71.103053
2023-07-17T10:45:16.785Z,71.103053
2023-07-17T10:50:16.690Z,71.202798
2023-07-17T10:55:16.721Z,71.302543
2023-07-17T11:00:16.739Z,71.402288
2023-07-17T11:05:16.765Z,71.502032
2023-07-17T11:10:16.791Z,71.701521
2023-07-17T11:15:16.696Z,71.901010
2023-07-17T11:20:16.792Z,72.200243
2023-07-17T11:25:16.699Z,72.399732
2023-07-17T11:30:16.770Z,72.798708
2023-07-17T11:35:16.992Z,72.798708
2023-07-17T11:40:16.816Z,72.798708
2023-07-17T11:45:16.827Z,72.798708
2023-07-17T11:50:16.783Z,72.798708
2023-07-17T11:55:16.883Z,72.898451
2023-07-17T12:00:16.874Z,73.197683
2023-07-17T12:05:16.841Z,73.696400
2023-07-17T12:10:17.002Z,73.895887
2023-07-17T12:15:16.916Z,74.294860
2023-07-17T12:20:17.070Z,74.793574
2023-07-17T12:25:17.049Z,74.884751
2023-07-17T12:30:17.018Z,75.171059
2023-07-17T12:35:17.105Z,75.668459
2023-07-17T12:40:17.021Z,75.531875
2023-07-17T12:45:17.113Z,75.606766
2023-07-17T12:50:16.983Z,75.974346
2023-07-17T12:55:17.342Z,75.905031
2023-07-17T13:00:17.160Z,75.819368
2023-07-17T13:05:17.207Z,75.868432
2023-07-17T13:10:17.017Z,75.364955
2023-07-17T13:15:16.977Z,75.302952
2023-07-17T13:20:17.037Z,75.791890
2023-07-17T13:25:17.070Z,75.919794
2023-07-17T13:30:17.089Z,76.139850
2023-07-17T13:35:17.106Z,75.882398
2023-07-17T13:40:17.130Z,76.085944
2023-07-17T13:45:17.162Z,75.992819
2023-07-17T13:50:17.226Z,75.894416
2023-07-17T13:55:19.254Z,75.694086
2023-07-17T14:00:17.159Z,75.392195
2023-07-17T14:05:17.111Z,74.677286
2023-07-17T14:10:17.217Z,74.360214
2023-07-17T14:15:17.183Z,74.869349
2023-07-17T14:20:17.190Z,74.647799
2023-07-17T14:25:17.303Z,74.839518
2023-07-17T14:30:17.455Z,75.222945
2023-07-17T14:35:17.414Z,75.186000
2023-07-17T14:40:17.376Z,74.760442
2023-07-17T14:45:17.325Z,74.803269
2023-07-17T14:50:17.260Z,75.318800
2023-07-17T14:55:17.278Z,75.377360
2023-07-17T15:00:17.416Z,75.237972
2023-07-17T15:05:20.637Z,74.901530
2023-07-17T15:10:17.423Z,74.749535
2023-07-17T15:15:17.371Z,75.378157
2023-07-17T15:20:17.356Z,75.225262
2023-07-17T15:25:17.446Z,75.759442
2023-07-17T15:30:17.347Z,74.614719
2023-07-17T15:35:17.444Z,74.709497
2023-07-17T15:40:17.424Z,74.614719
2023-07-17T15:45:17.574Z,74.425159
2023-07-17T15:50:17.472Z,74.875697
2023-07-17T15:55:17.473Z,73.036856
2023-07-17T16:00:17.500Z,72.749307
2023-07-17T16:05:15.442Z,73.031388
2023-07-17T16:10:15.424Z,74.073229
2023-07-17T16:15:15.316Z,73.298677
2023-07-17T16:20:15.563Z,73.877566
2023-07-17T16:25:15.389Z,73.971580
2023-07-17T16:30:15.460Z,72.900438
2023-07-17T16:35:15.534Z,72.494589
2023-07-17T16:40:15.430Z,72.588011
2023-07-17T16:45:15.573Z,72.174108
2023-07-17T16:50:15.531Z,70.790097
2023-07-17T16:55:15.505Z,71.938119
2023-07-17T17:00:15.709Z,71.160451
2023-07-17T17:05:15.895Z,71.253036
2023-07-17T17:10:15.547Z,71.600119
2023-07-17T17:15:15.570Z,71.692917
2023-07-17T17:20:15.736Z,72.919812
2023-07-17T17:25:15.630Z,74.705865
2023-07-17T17:30:15.598Z,74.799668
2023-07-17T17:35:15.544Z,75.381647
2023-07-17T17:40:15.650Z,75.475642
2023-07-17T17:45:15.646Z,76.227559
2023-07-17T17:50:15.592Z,75.427823
2023-07-17T17:55:15.680Z,72.435247
2023-07-17T18:00:15.728Z,72.156884
2023-07-17T18:05:15.930Z,73.106225
2023-07-17T18:10:15.747Z,73.930224
2023-07-17T18:15:15.857Z,73.615574
2023-07-17T18:20:15.790Z,74.117441
2023-07-17T18:25:15.715Z,74.117441
2023-07-17T18:30:15.702Z,73.615574
2023-07-17T18:35:15.828Z,73.615574
2023-07-17T18:40:15.844Z,73.013019
2023-07-17T18:45:15.837Z,73.428756
2023-07-17T18:50:15.851Z,72.919812
2023-07-17T18:55:15.800Z,73.802386
2023-07-17T19:00:16.081Z,73.989194
2023-07-17T19:05:15.995Z,73.989194
2023-07-17T19:10:16.071Z,73.385834
2023-07-17T19:15:15.927Z,73.385834
2023-07-17T19:20:16.034Z,72.682149
2023-07-17T19:25:15.886Z,72.589150
2023-07-17T19:30:15.906Z,73.428756
2023-07-17T19:35:16.101Z,73.615574
2023-07-17T19:40:15.978Z,73.199429
2023-07-17T19:45:15.961Z,73.106225
2023-07-17T19:50:16.019Z,72.775147
2023-07-17T19:55:15.975Z,73.106225
2023-07-17T20:00:16.027Z,72.919812
2023-07-17T20:05:15.965Z,72.733394
2023-07-17T20:10:16.050Z,73.241933
2023-07-17T20:15:16.151Z,73.148519
2023-07-17T20:20:16.045Z,72.961688
2023-07-17T20:25:16.106Z,73.274923
2023-07-17T20:30:16.115Z,73.274923
2023-07-17T20:35:27.620Z,73.673954
2023-07-17T20:40:16.091Z,73.673954
2023-07-17T20:45:16.182Z,74.065593
2023-07-17T20:50:16.083Z,73.971580
2023-07-17T20:55:16.163Z,73.877566
2023-07-17T21:00:16.122Z,73.689535
2023-07-17T21:05:16.141Z,73.111032
2023-07-17T21:10:16.196Z,73.689535
2023-07-17T21:15:16.202Z,74.065593
2023-07-17T21:20:16.288Z,74.159604
2023-07-17T21:25:16.225Z,74.826868
2023-07-17T21:30:16.185Z,74.732667
2023-07-17T21:35:16.471Z,74.544262
2023-07-17T21:40:16.243Z,74.544262
2023-07-17T21:45:16.428Z,74.073229
2023-07-17T21:50:16.329Z,72.094578
2023-07-17T21:55:16.255Z,71.865699
2023-07-17T22:00:16.372Z,72.041275
2023-07-17T22:05:16.311Z,71.990325
2023-07-17T22:10:16.496Z,72.410885
2023-07-17T22:15:16.395Z,72.028053
2023-07-17T22:20:16.399Z,72.155151
2023-07-17T22:25:16.369Z,72.852533
2023-07-17T22:30:16.596Z,73.332759
2023-07-17T22:35:16.544Z,72.985106
2023-07-17T22:40:16.368Z,72.793703
2023-07-17T22:45:16.499Z,73.113929
2023-07-17T22:50:16.368Z,72.506591
2023-07-17T22:55:16.524Z,72.922180
2023-07-17T23:00:16.458Z,73.018055
2023-07-17T23:05:16.496Z,73.497416
2023-07-17T23:10:16.755Z,73.136672
2023-07-17T23:15:16.526Z,73.090133
2023-07-17T23:20:18.686Z,73.463601
2023-07-17T23:25:16.571Z,73.332759
2023-07-17T23:30:16.725Z,73.546037
2023-07-17T23:35:16.522Z,73.546037
2023-07-17T23:40:16.554Z,72.948580
2023-07-17T23:45:16.589Z,73.546037
2023-07-17T23:50:16.657Z,73.353614
2023-07-17T23:55:16.560Z,73.449826
